Time;durP1;ratioP1;P1;durP2;ratioP2;P2;SDS_P1;SDS_P2;PMS_P1;PMS_P2;Temp;Humidity;BMP_temperature;BMP_pressure;BME280_temperature;BME280_humidity;BME280_pressure;Samples;Min_cycle;Max_cycle;Signal;HPM_P1;HPM_P2
2024/01/17 00:00:49;;;;;;;26.33;6.25;;;-2.10;10.60;;;;;;5036850;28;20223;-80
2024/01/17 00:03:14;;;;;;;26.60;5.93;;;-2.20;9.80;;;;;;5036508;28;20251;-79
2024/01/17 00:05:40;;;;;;;23.23;6.20;;;-2.20;11.20;;;;;;5036988;28;20249;-78
2024/01/17 00:08:06;;;;;;;30.77;6.40;;;-2.20;11.70;;;;;;5036359;28;20544;-78
2024/01/17 00:10:32;;;;;;;23.15;6.78;;;-2.20;12.40;;;;;;5036740;28;20173;-79
2024/01/17 00:12:58;;;;;;;21.07;5.37;;;-2.20;15.00;;;;;;5037063;28;20196;-81
2024/01/17 00:15:23;;;;;;;25.60;6.57;;;-2.30;17.00;;;;;;5036095;28;20426;-80
2024/01/17 00:17:49;;;;;;;25.07;5.93;;;-2.30;16.90;;;;;;5036672;28;20195;-79
2024/01/17 00:20:15;;;;;;;24.77;6.40;;;-2.20;20.50;;;;;;5036469;28;20192;-79
2024/01/17 00:22:41;;;;;;;23.27;6.57;;;-2.20;19.60;;;;;;5036527;28;20759;-79
2024/01/17 00:25:08;;;;;;;24.30;7.00;;;-2.20;19.40;;;;;;5036990;28;20175;-80
2024/01/17 00:27:36;;;;;;;23.50;6.55;;;-2.30;21.60;;;;;;5017861;28;20462;-79
2024/01/17 00:30:02;;;;;;;23.38;7.47;;;-2.30;24.70;;;;;;5018339;28;20169;-79
2024/01/17 00:32:28;;;;;;;25.70;7.60;;;-2.30;29.80;;;;;;5018168;28;20234;-79
2024/01/17 00:34:54;;;;;;;25.50;7.30;;;-2.30;33.90;;;;;;5036175;28;20168;-79
2024/01/17 00:37:20;;;;;;;24.60;8.13;;;-2.30;36.40;;;;;;5036093;28;20193;-79
2024/01/17 00:39:46;;;;;;;25.00;8.20;;;-2.30;37.80;;;;;;5035939;28;20407;-80
2024/01/17 00:42:12;;;;;;;24.00;7.73;;;-2.30;38.70;;;;;;5035854;28;20168;-79
2024/01/17 00:44:39;;;;;;;26.00;7.73;;;-2.30;40.90;;;;;;5035912;28;20396;-79
2024/01/17 00:47:05;;;;;;;25.25;8.20;;;-2.30;40.60;;;;;;5018346;28;20668;-80
2024/01/17 00:49:31;;;;;;;29.30;8.00;;;-2.30;37.80;;;;;;5017892;28;20642;-79
2024/01/17 00:51:57;;;;;;;23.70;6.28;;;-2.30;37.40;;;;;;5017868;28;20667;-78
2024/01/17 00:54:23;;;;;;;25.13;7.53;;;-2.30;35.30;;;;;;5035177;28;20194;-79
2024/01/17 00:56:48;;;;;;;26.13;6.57;;;-2.40;34.70;;;;;;5035256;28;20420;-80
2024/01/17 00:59:14;;;;;;;24.80;7.50;;;-2.40;40.30;;;;;;5035337;28;20175;-79
2024/01/17 01:01:40;;;;;;;23.57;6.67;;;-2.40;37.10;;;;;;5018713;28;20180;-80
2024/01/17 01:04:08;;;;;;;25.23;7.23;;;-2.40;39.50;;;;;;5035477;28;20180;-78
2024/01/17 01:06:33;;;;;;;22.92;7.15;;;-2.40;37.20;;;;;;5035318;28;20558;-80
2024/01/17 01:08:59;;;;;;;28.83;7.53;;;-2.50;39.90;;;;;;5035785;28;20652;-79
2024/01/17 01:11:30;;;;;;;25.93;7.07;;;-2.40;43.90;;;;;;5035610;28;20655;-80
2024/01/17 01:13:55;;;;;;;26.73;7.88;;;-2.40;43.60;;;;;;5035734;28;20177;-80
2024/01/17 01:16:21;;;;;;;24.00;7.23;;;-2.50;47.50;;;;;;5035428;28;20188;-78
2024/01/17 01:18:46;;;;;;;25.30;8.37;;;-2.50;55.30;;;;;;5035647;28;20580;-80
2024/01/17 01:21:12;;;;;;;30.60;8.53;;;-2.50;58.90;;;;;;5017109;28;20645;-79
2024/01/17 01:23:38;;;;;;;26.03;8.80;;;-2.50;65.80;;;;;;5034642;28;20170;-78
2024/01/17 01:26:03;;;;;;;27.17;7.97;;;-2.60;68.60;;;;;;5034922;28;20188;-79
2024/01/17 01:28:29;;;;;;;31.50;8.70;;;-2.50;76.60;;;;;;5034853;28;20180;-80
2024/01/17 01:30:55;;;;;;;24.63;8.07;;;-2.60;80.60;;;;;;5034887;28;20180;-80
2024/01/17 01:33:21;;;;;;;25.20;7.77;;;-2.60;84.20;;;;;;5017336;28;20679;-79
2024/01/17 01:35:48;;;;;;;28.88;8.05;;;-2.60;85.10;;;;;;5016919;28;20218;-79
2024/01/17 01:38:13;;;;;;;26.60;9.32;;;-2.60;90.00;;;;;;5017393;28;20170;-79
2024/01/17 01:40:42;;;;;;;24.83;7.87;;;-2.60;91.70;;;;;;5035444;28;20180;-80
2024/01/17 01:43:20;;;;;;;27.17;8.70;;;-2.60;90.90;;;;;;5035684;28;20685;-79
2024/01/17 01:46:01;;;;;;;33.25;8.35;;;-2.50;92.60;;;;;;5035188;28;20654;-79
2024/01/17 01:48:26;;;;;;;26.33;9.15;;;-2.50;91.60;;;;;;5034521;28;20580;-80
2024/01/17 01:50:52;;;;;;;27.27;9.07;;;-2.50;90.40;;;;;;5017171;28;20165;-79
2024/01/17 01:53:18;;;;;;;31.23;10.20;;;-2.50;90.90;;;;;;5016771;28;20631;-80
2024/01/17 01:55:43;;;;;;;27.97;8.30;;;-2.50;92.70;;;;;;5034561;28;20157;-80
2024/01/17 01:58:09;;;;;;;27.60;8.33;;;-2.50;36.60;;;;;;5034506;28;20189;-80
2024/01/17 02:00:35;;;;;;;29.87;10.10;;;-2.50;42.10;;;;;;5016621;28;20172;-80
2024/01/17 02:03:01;;;;;;;29.65;9.15;;;-2.60;51.20;;;;;;5016774;28;20657;-80
2024/01/17 02:05:27;;;;;;;24.30;8.07;;;-2.60;57.40;;;;;;5034500;28;20179;-79
2024/01/17 02:07:54;;;;;;;27.85;8.88;;;-2.60;52.70;;;;;;5034200;28;20438;-79
2024/01/17 02:10:20;;;;;;;31.02;8.65;;;-2.60;56.20;;;;;;5034710;28;20229;-80
2024/01/17 02:12:47;;;;;;;29.33;8.87;;;-2.60;59.50;;;;;;5034499;28;20194;-80
2024/01/17 02:15:12;;;;;;;26.20;9.25;;;-2.70;58.60;;;;;;5034259;28;20399;-79
2024/01/17 02:17:38;;;;;;;30.73;9.00;;;-2.70;58.20;;;;;;5034346;28;20203;-80
2024/01/17 02:20:04;;;;;;;28.47;9.57;;;-2.60;59.50;;;;;;5016783;28;20173;-80
2024/01/17 02:22:30;;;;;;;33.60;10.50;;;-2.70;50.60;;;;;;5034263;28;20168;-79
2024/01/17 02:24:55;;;;;;;25.87;8.53;;;-2.70;54.20;;;;;;5034351;28;20658;-79
2024/01/17 02:27:21;;;;;;;33.57;9.20;;;-2.70;56.20;;;;;;5016233;28;20235;-79
2024/01/17 02:29:48;;;;;;;29.77;9.00;;;-2.70;57.70;;;;;;5034320;28;20652;-79
2024/01/17 02:32:14;;;;;;;30.67;10.05;;;-2.70;54.80;;;;;;5033975;28;20162;-79
2024/01/17 02:34:40;;;;;;;25.08;8.82;;;-2.70;55.90;;;;;;5035864;28;20288;-79
2024/01/17 02:37:12;;;;;;;30.30;8.93;;;-2.80;57.20;;;;;;5038107;28;20224;-79
2024/01/17 02:39:37;;;;;;;30.00;10.48;;;-2.70;64.10;;;;;;5038157;28;20222;-78
2024/01/17 02:42:03;;;;;;;27.43;8.87;;;-2.70;63.30;;;;;;5038345;28;20164;-78
2024/01/17 02:44:29;;;;;;;27.97;10.40;;;-2.80;68.10;;;;;;5038054;28;20193;-80
2024/01/17 02:46:55;;;;;;;30.43;9.93;;;-2.80;77.30;;;;;;5037987;28;20529;-80
2024/01/17 02:49:21;;;;;;;29.03;9.77;;;-2.80;74.90;;;;;;5038500;28;20200;-78
2024/01/17 02:51:46;;;;;;;34.72;11.15;;;-2.70;76.80;;;;;;5037965;28;20247;-80
2024/01/17 02:54:15;;;;;;;29.20;9.37;;;-2.70;63.90;;;;;;5037650;28;20667;-79
2024/01/17 02:56:41;;;;;;;29.60;10.48;;;-2.70;59.10;;;;;;5038053;28;20232;-80
2024/01/17 02:59:07;;;;;;;27.03;9.30;;;-2.80;61.70;;;;;;5019749;28;20664;-79
2024/01/17 03:01:33;;;;;;;27.77;10.00;;;-2.80;66.40;;;;;;5037833;28;20167;-79
2024/01/17 03:03:59;;;;;;;25.83;9.57;;;-2.80;72.60;;;;;;5038017;28;20177;-79
2024/01/17 03:06:25;;;;;;;39.10;10.87;;;-2.80;71.70;;;;;;5037458;28;20431;-80
2024/01/17 03:08:50;;;;;;;31.23;10.33;;;-2.80;78.20;;;;;;5019719;28;20412;-79
2024/01/17 03:11:16;;;;;;;27.70;10.60;;;-2.80;81.50;;;;;;5037536;28;20402;-80
2024/01/17 03:13:42;;;;;;;29.40;9.20;;;-2.80;84.30;;;;;;5037405;28;20226;-80
2024/01/17 03:16:07;;;;;;;30.73;9.73;;;-2.80;79.00;;;;;;5037181;28;20188;-78
2024/01/17 03:18:33;;;;;;;26.30;9.20;;;-2.80;75.20;;;;;;5037564;28;20657;-80
2024/01/17 03:21:04;;;;;;;29.07;8.93;;;-2.80;76.70;;;;;;5037442;28;20246;-80
2024/01/17 03:23:29;;;;;;;29.88;10.00;;;-2.80;73.40;;;;;;5037595;28;20153;-79
2024/01/17 03:25:55;;;;;;;25.90;8.87;;;-2.80;72.60;;;;;;5037534;28;20185;-79
2024/01/17 03:28:20;;;;;;;25.30;8.60;;;-2.80;73.70;;;;;;5037545;28;20176;-78
2024/01/17 03:30:46;;;;;;;30.43;9.83;;;-2.90;76.80;;;;;;5037380;28;20171;-80
2024/01/17 03:33:12;;;;;;;31.00;10.07;;;-2.80;79.90;;;;;;5037197;28;20561;-78
2024/01/17 03:35:37;;;;;;;25.47;9.60;;;-2.80;81.30;;;;;;5019380;28;20172;-80
2024/01/17 03:38:03;;;;;;;29.93;9.43;;;-2.80;85.80;;;;;;5036986;28;20336;-80
2024/01/17 03:40:29;;;;;;;27.53;9.40;;;-2.80;87.50;;;;;;5037036;28;20253;-79
2024/01/17 03:42:54;;;;;;;28.83;9.03;;;-2.80;89.00;;;;;;5019126;28;20175;-79
2024/01/17 03:45:20;;;;;;;25.80;9.07;;;-2.80;90.30;;;;;;5036301;28;20176;-80
2024/01/17 03:47:46;;;;;;;32.40;9.63;;;-2.70;83.50;;;;;;5036888;28;20708;-79
2024/01/17 03:50:11;;;;;;;25.97;9.60;;;-2.80;79.30;;;;;;5036979;28;20169;-80
2024/01/17 03:52:37;;;;;;;28.37;9.03;;;-2.70;85.10;;;;;;5036676;28;20180;-78
2024/01/17 03:55:03;;;;;;;32.20;10.63;;;-2.70;78.20;;;;;;5018710;28;20230;-79
2024/01/17 03:57:28;;;;;;;26.60;10.03;;;-2.70;77.30;;;;;;5036591;28;20199;-79
2024/01/17 03:59:54;;;;;;;26.83;9.70;;;-2.70;74.80;;;;;;5036574;28;20906;-78
2024/01/17 04:02:20;;;;;;;29.80;10.10;;;-2.60;75.40;;;;;;5036393;28;20164;-78
2024/01/17 04:04:47;;;;;;;33.23;9.97;;;-2.70;68.30;;;;;;5036343;28;20643;-79
2024/01/17 04:07:13;;;;;;;24.60;8.70;;;-2.70;69.80;;;;;;5036100;28;20188;-78
2024/01/17 04:09:38;;;;;;;31.83;10.03;;;-2.70;77.70;;;;;;5036255;28;20192;-80
2024/01/17 04:12:07;;;;;;;26.77;8.93;;;-2.70;80.20;;;;;;5018431;28;20177;-79
2024/01/17 04:14:33;;;;;;;34.35;10.63;;;-2.70;83.90;;;;;;5036524;28;20192;-79
2024/01/17 04:16:58;;;;;;;29.50;9.30;;;-2.70;90.30;;;;;;5036185;28;20582;-79
2024/01/17 04:19:24;;;;;;;29.23;9.47;;;-2.80;93.20;;;;;;5036568;28;20175;-80
2024/01/17 04:21:56;;;;;;;25.47;9.60;;;-2.80;96.10;;;;;;5036082;28;20690;-79
2024/01/17 04:24:23;;;;;;;28.65;9.88;;;-2.80;97.20;;;;;;5018189;28;20257;-80
2024/01/17 04:26:49;;;;;;;27.10;9.90;;;-2.80;97.40;;;;;;5018110;28;20209;-80
2024/01/17 04:29:14;;;;;;;34.20;10.90;;;-2.80;97.70;;;;;;5018223;28;20233;-79
2024/01/17 04:31:40;;;;;;;29.73;10.63;;;-2.80;97.90;;;;;;5035755;28;20228;-78
2024/01/17 04:34:06;;;;;;;33.27;10.63;;;-2.80;97.80;;;;;;5035603;28;20223;-78
2024/01/17 04:36:31;;;;;;;30.70;10.33;;;-2.80;99.90;;;;;;5018070;28;20226;-79
2024/01/17 04:38:58;;;;;;;30.03;11.10;;;-2.90;99.50;;;;;;5035791;28;20169;-79
2024/01/17 04:41:23;;;;;;;29.33;9.57;;;-2.80;99.90;;;;;;5035271;28;20171;-79
2024/01/17 04:43:49;;;;;;;30.40;11.23;;;-2.90;99.90;;;;;;5017693;28;20174;-78
2024/01/17 04:46:16;;;;;;;29.00;10.20;;;-2.80;99.90;;;;;;5035131;28;20790;-78
2024/01/17 04:48:44;;;;;;;27.83;9.95;;;-2.80;99.90;;;;;;5017619;28;20171;-79
2024/01/17 04:51:10;;;;;;;33.55;11.02;;;-2.80;99.90;;;;;;5035104;28;20653;-79
2024/01/17 04:53:41;;;;;;;28.60;10.65;;;-2.80;99.90;;;;;;5034926;28;20669;-79
2024/01/17 04:56:11;;;;;;;31.10;10.50;;;-2.70;99.90;;;;;;5034830;28;20184;-79
2024/01/17 04:58:37;;;;;;;34.72;11.10;;;-2.70;99.90;;;;;;5034792;28;20159;-78
2024/01/17 05:01:05;;;;;;;31.77;10.18;;;-2.70;97.50;;;;;;5017284;28;20171;-78
2024/01/17 05:03:32;;;;;;;30.85;11.52;;;-2.70;94.40;;;;;;5035528;28;20168;-79
2024/01/17 05:05:58;;;;;;;30.95;9.55;;;-2.70;92.30;;;;;;5034890;28;20169;-79
2024/01/17 05:08:24;;;;;;;33.58;10.25;;;-2.60;92.90;;;;;;5016824;28;20172;-79
2024/01/17 05:10:50;;;;;;;31.30;10.30;;;-2.60;87.80;;;;;;5034922;28;20173;-79
2024/01/17 05:13:16;;;;;;;33.53;11.77;;;-2.70;79.80;;;;;;5034553;28;20461;-79
2024/01/17 05:15:42;;;;;;;36.60;10.27;;;-2.70;76.70;;;;;;5034861;28;20171;-79
2024/01/17 05:18:08;;;;;;;33.67;10.90;;;-2.70;81.00;;;;;;5034581;28;20193;-79
2024/01/17 05:20:34;;;;;;;29.75;9.95;;;-2.80;83.30;;;;;;5034658;28;20410;-80
2024/01/17 05:23:01;;;;;;;30.13;10.20;;;-2.80;86.50;;;;;;5034554;28;20172;-79
2024/01/17 05:25:27;;;;;;;26.45;9.32;;;-2.70;87.60;;;;;;5034751;28;20446;-79
2024/01/17 05:27:53;;;;;;;33.35;10.02;;;-2.70;89.40;;;;;;5034683;28;20661;-79
2024/01/17 05:30:25;;;;;;;26.73;9.25;;;-2.70;79.40;;;;;;5034576;28;20263;-80
2024/01/17 05:32:52;;;;;;;27.30;9.18;;;-2.70;74.30;;;;;;5017507;28;20200;-78
2024/01/17 05:35:19;;;;;;;32.15;11.23;;;-2.70;75.90;;;;;;5034380;28;20158;-80
2024/01/17 05:37:47;;;;;;;39.15;11.25;;;-2.60;77.20;;;;;;5016742;28;20191;-79
2024/01/17 05:40:13;;;;;;;28.67;9.68;;;-2.60;72.20;;;;;;5034633;28;20161;-78
2024/01/17 05:42:40;;;;;;;31.52;10.80;;;-2.60;67.70;;;;;;5016834;28;20176;-79
2024/01/17 05:45:07;;;;;;;28.88;9.65;;;-2.60;66.60;;;;;;5035118;28;20173;-80
2024/01/17 05:47:35;;;;;;;32.00;9.82;;;-2.60;69.40;;;;;;5034802;28;20189;-80
2024/01/17 05:50:02;;;;;;;34.38;10.98;;;-2.50;74.00;;;;;;5016576;28;20661;-80
2024/01/17 05:52:28;;;;;;;33.67;11.30;;;-2.40;71.40;;;;;;5034723;28;20175;-79
2024/01/17 05:54:54;;;;;;;28.27;10.00;;;-2.40;65.50;;;;;;5016877;28;20638;-79
2024/01/17 05:57:19;;;;;;;31.37;10.90;;;-2.40;61.50;;;;;;5016723;28;20631;-79
2024/01/17 05:59:45;;;;;;;31.03;12.00;;;-2.50;58.30;;;;;;5016798;28;20294;-79
2024/01/17 06:02:11;;;;;;;30.37;9.67;;;-2.50;64.70;;;;;;5034246;28;20167;-79
2024/01/17 06:04:36;;;;;;;28.73;9.80;;;-2.50;66.10;;;;;;5035394;28;20164;-80
2024/01/17 06:07:11;;;;;;;27.40;10.50;;;-2.50;68.30;;;;;;5034372;28;20669;-79
2024/01/17 06:09:37;;;;;;;30.92;9.93;;;-2.50;67.80;;;;;;5038206;28;20205;-79
2024/01/17 06:12:03;;;;;;;28.23;10.47;;;-2.40;73.90;;;;;;5038644;28;20177;-79
2024/01/17 06:14:28;;;;;;;36.72;9.45;;;-2.40;59.60;;;;;;5038189;28;20202;-79
2024/01/17 06:16:54;;;;;;;33.27;9.83;;;-2.40;62.10;;;;;;5038458;28;20520;-80
2024/01/17 06:19:20;;;;;;;29.23;10.33;;;-2.40;65.20;;;;;;5038174;28;20175;-79
2024/01/17 06:21:46;;;;;;;27.52;10.10;;;-2.40;62.90;;;;;;5020220;28;20168;-80
2024/01/17 06:24:11;;;;;;;29.70;10.27;;;-2.30;62.50;;;;;;5038081;28;20168;-79
2024/01/17 06:26:37;;;;;;;32.27;11.23;;;-2.30;59.70;;;;;;5038012;28;20624;-80
2024/01/17 06:29:03;;;;;;;31.53;10.47;;;-2.30;55.00;;;;;;5038437;28;20180;-80
2024/01/17 06:31:28;;;;;;;28.10;8.43;;;-2.30;52.40;;;;;;5038004;28;20267;-80
2024/01/17 06:33:54;;;;;;;34.57;11.70;;;-2.30;53.90;;;;;;5038060;28;20288;-80
2024/01/17 06:36:21;;;;;;;30.15;9.63;;;-2.20;55.60;;;;;;5037784;28;20186;-81
2024/01/17 06:38:46;;;;;;;31.48;11.32;;;-2.20;50.20;;;;;;5037786;28;20245;-79
2024/01/17 06:41:12;;;;;;;32.53;10.60;;;-2.10;48.50;;;;;;5038249;28;20193;-80
2024/01/17 06:43:38;;;;;;;31.73;10.10;;;-2.10;45.00;;;;;;5037478;28;20294;-79
2024/01/17 06:46:04;;;;;;;29.77;10.90;;;-2.10;44.40;;;;;;5019922;28;20179;-79
2024/01/17 06:48:30;;;;;;;33.08;10.20;;;-2.00;42.20;;;;;;5019970;28;20178;-81
2024/01/17 06:50:56;;;;;;;42.63;11.13;;;-2.00;35.40;;;;;;5037883;28;20165;-80
2024/01/17 06:53:22;;;;;;;29.27;9.50;;;-2.10;33.30;;;;;;5037725;28;20204;-80
2024/01/17 06:55:48;;;;;;;24.33;8.23;;;-2.10;33.00;;;;;;5037557;28;20427;-79
2024/01/17 06:58:16;;;;;;;26.02;9.00;;;-2.00;34.70;;;;;;5037576;28;20172;-80
2024/01/17 07:00:43;;;;;;;30.20;9.70;;;-2.00;34.20;;;;;;5037672;28;20287;-79
2024/01/17 07:03:09;;;;;;;32.17;10.25;;;-2.00;32.70;;;;;;5020633;28;20180;-79
2024/01/17 07:05:37;;;;;;;25.27;8.37;;;-2.00;33.90;;;;;;5037841;28;20166;-79
2024/01/17 07:08:03;;;;;;;31.52;9.85;;;-2.00;31.10;;;;;;5037196;28;20186;-79
2024/01/17 07:10:29;;;;;;;32.13;10.50;;;-1.90;30.50;;;;;;5037918;28;20676;-80
2024/01/17 07:12:54;;;;;;;25.40;7.90;;;-2.00;24.10;;;;;;5037374;28;20961;-79
2024/01/17 07:15:21;;;;;;;31.93;8.70;;;-2.00;24.90;;;;;;5037573;28;20166;-79
2024/01/17 07:17:46;;;;;;;28.10;9.68;;;-2.00;23.10;;;;;;5019533;28;20189;-79
2024/01/17 07:20:12;;;;;;;28.73;9.63;;;-1.90;21.90;;;;;;5036565;28;20527;-79
2024/01/17 07:22:42;;;;;;;31.00;9.30;;;-1.90;17.90;;;;;;5037294;28;20573;-79
2024/01/17 07:25:12;;;;;;;27.55;8.73;;;-1.90;17.10;;;;;;5019389;28;20216;-80
2024/01/17 07:27:43;;;;;;;27.85;8.73;;;-1.90;16.20;;;;;;5019185;28;20212;-79
2024/01/17 07:30:13;;;;;;;26.33;9.10;;;-1.90;15.70;;;;;;5036977;28;20184;-81
2024/01/17 07:32:39;;;;;;;29.90;8.18;;;-1.80;13.00;;;;;;5037141;28;20181;-81
2024/01/17 07:35:06;;;;;;;24.92;8.30;;;-1.80;3.70;;;;;;5019232;28;20172;-81
2024/01/17 07:37:31;;;;;;;25.80;9.10;;;-1.80;1.00;;;;;;5037006;28;20607;-80
2024/01/17 07:39:58;;;;;;;30.63;9.83;;;-1.80;1.00;;;;;;5036642;28;20197;-80
2024/01/17 07:42:23;;;;;;;26.73;9.35;;;-1.70;1.00;;;;;;5036488;28;20208;-79
2024/01/17 07:44:49;;;;;;;28.60;8.57;;;-1.70;1.00;;;;;;5018866;28;20172;-80
2024/01/17 07:47:15;;;;;;;26.33;8.07;;;-1.70;1.00;;;;;;5036184;28;20809;-79
2024/01/17 07:49:41;;;;;;;34.03;9.43;;;-1.70;2.80;;;;;;5036813;28;20547;-79
2024/01/17 07:52:07;;;;;;;29.80;9.43;;;-1.70;1.00;;;;;;5036649;28;20179;-82
2024/01/17 07:54:33;;;;;;;29.45;9.35;;;-1.70;1.00;;;;;;5037186;28;20203;-80
2024/01/17 07:56:59;;;;;;;25.43;7.73;;;-1.70;1.00;;;;;;5036328;28;20561;-80
2024/01/17 07:59:26;;;;;;;28.00;9.37;;;-1.70;1.00;;;;;;5036492;28;20210;-79
2024/01/17 08:01:52;;;;;;;23.85;8.20;;;-1.70;1.00;;;;;;5036364;28;20141;-80
2024/01/17 08:04:17;;;;;;;26.63;9.17;;;-1.70;1.00;;;;;;5018248;28;20218;-80
2024/01/17 08:06:43;;;;;;;28.57;8.50;;;-1.60;1.00;;;;;;5035959;28;20436;-79
2024/01/17 08:09:20;;;;;;;26.57;8.57;;;-1.70;1.00;;;;;;5036240;28;20813;-79
2024/01/17 08:11:54;;;;;;;31.15;9.05;;;-1.70;1.00;;;;;;5036117;28;20157;-79
2024/01/17 08:14:20;;;;;;;29.20;8.23;;;-1.60;1.00;;;;;;5036203;28;20213;-79
2024/01/17 08:16:48;;;;;;;29.60;9.40;;;-1.60;1.00;;;;;;5035907;28;20188;-79
2024/01/17 08:19:14;;;;;;;27.15;8.63;;;-1.60;1.00;;;;;;5035501;28;20249;-79
2024/01/17 08:21:46;;;;;;;26.33;8.75;;;-1.60;1.00;;;;;;5035839;28;20189;-79
2024/01/17 08:24:15;;;;;;;28.63;7.93;;;-1.60;1.00;;;;;;5035797;28;20165;-79
2024/01/17 08:26:41;;;;;;;37.67;9.38;;;-1.50;1.00;;;;;;5017055;28;20209;-80
2024/01/17 08:29:07;;;;;;;24.83;7.15;;;-1.50;1.00;;;;;;5017677;28;20209;-79
2024/01/17 08:31:33;;;;;;;30.17;8.65;;;-1.40;1.00;;;;;;5035953;28;20170;-80
2024/01/17 08:34:00;;;;;;;31.80;9.53;;;-1.40;1.00;;;;;;5018316;28;20196;-80
2024/01/17 08:36:29;;;;;;;27.10;9.30;;;-1.40;1.00;;;;;;5036104;28;20180;-81
2024/01/17 08:38:55;;;;;;;26.35;8.82;;;-1.40;1.00;;;;;;5017703;28;20181;-79
2024/01/17 08:41:21;;;;;;;28.55;8.98;;;-1.30;1.00;;;;;;5018184;28;20248;-81
2024/01/17 08:43:47;;;;;;;28.10;8.60;;;-1.40;1.00;;;;;;5035484;28;20200;-79
2024/01/17 08:46:14;;;;;;;32.33;10.50;;;-1.40;1.00;;;;;;5035350;28;20419;-79
2024/01/17 08:48:40;;;;;;;29.50;8.82;;;-1.30;1.00;;;;;;5035174;28;20439;-81
2024/01/17 08:51:08;;;;;;;27.92;9.95;;;-1.30;1.00;;;;;;5035284;28;20162;-81
2024/01/17 08:53:34;;;;;;;31.17;9.95;;;-1.30;1.00;;;;;;5035314;28;20208;-81
2024/01/17 08:56:02;;;;;;;27.58;8.45;;;-1.30;1.00;;;;;;5017621;28;20195;-81
2024/01/17 08:58:28;;;;;;;29.67;9.27;;;-1.20;1.00;;;;;;5035318;28;20159;-79
2024/01/17 09:00:53;;;;;;;27.40;8.60;;;-1.30;1.00;;;;;;5017823;28;20173;-80
2024/01/17 09:03:20;;;;;;;26.57;8.80;;;-1.30;1.00;;;;;;5035895;28;20395;-80
2024/01/17 09:05:46;;;;;;;27.50;9.40;;;-1.20;1.00;;;;;;5035866;28;20405;-81
2024/01/17 09:08:13;;;;;;;26.57;8.70;;;-1.20;1.00;;;;;;5035608;28;20279;-81
2024/01/17 09:10:39;;;;;;;26.08;9.40;;;-1.20;1.00;;;;;;5035217;28;20161;-80
2024/01/17 09:13:06;;;;;;;30.00;8.00;;;-1.20;1.00;;;;;;5035692;28;20204;-81
2024/01/17 09:15:31;;;;;;;28.85;9.23;;;-1.20;1.00;;;;;;5035438;28;20184;-79
2024/01/17 09:17:57;;;;;;;28.00;9.27;;;-1.20;1.00;;;;;;5035509;28;20178;-81
2024/01/17 09:20:24;;;;;;;24.70;8.02;;;-1.10;1.00;;;;;;5035896;28;20158;-81
2024/01/17 09:22:50;;;;;;;28.45;9.30;;;-1.10;1.00;;;;;;5017470;28;20268;-79
2024/01/17 09:25:15;;;;;;;26.47;8.67;;;-1.10;1.00;;;;;;5016854;28;20218;-79
2024/01/17 09:27:41;;;;;;;26.27;8.00;;;-1.10;1.00;;;;;;5035277;28;20666;-80
2024/01/17 09:30:07;;;;;;;25.00;8.27;;;-1.00;1.00;;;;;;5035006;28;20461;-80
2024/01/17 09:32:33;;;;;;;26.05;9.95;;;-1.00;1.00;;;;;;5034665;28;20171;-81
2024/01/17 09:35:00;;;;;;;26.60;8.70;;;-1.00;1.00;;;;;;5017025;28;20702;-80
2024/01/17 09:37:25;;;;;;;30.88;9.80;;;-1.00;1.00;;;;;;5034990;28;20588;-81
2024/01/17 09:39:51;;;;;;;30.43;9.70;;;-0.90;1.00;;;;;;5034759;28;20173;-80
2024/01/17 09:42:19;;;;;;;25.77;7.40;;;-0.90;1.00;;;;;;5034154;28;20160;-80
2024/01/17 09:44:45;;;;;;;26.90;9.40;;;-0.80;1.00;;;;;;5034684;28;20165;-81
2024/01/17 09:47:16;;;;;;;28.20;8.03;;;-0.80;1.00;;;;;;5034623;28;20189;-80
2024/01/17 09:49:42;;;;;;;28.30;9.70;;;-0.80;1.00;;;;;;5034568;28;20464;-80
2024/01/17 09:52:12;;;;;;;34.00;9.67;;;-0.80;1.00;;;;;;5034603;28;20197;-80
2024/01/17 09:54:42;;;;;;;31.92;10.02;;;-0.80;1.00;;;;;;5016511;28;20193;-82
2024/01/17 09:57:13;;;;;;;27.70;9.57;;;-0.70;1.00;;;;;;5034535;28;20186;-81
2024/01/17 09:59:48;;;;;;;26.35;9.07;;;-0.80;1.00;;;;;;5034388;28;20150;-81
2024/01/17 10:02:16;;;;;;;23.58;8.30;;;-0.70;1.00;;;;;;5016674;28;20200;-80
2024/01/17 10:04:42;;;;;;;30.30;9.23;;;-0.70;1.00;;;;;;5034558;28;20257;-80
2024/01/17 10:07:09;;;;;;;27.80;8.82;;;-0.70;1.00;;;;;;5034901;28;20193;-82
2024/01/17 10:09:34;;;;;;;24.95;8.82;;;-0.70;1.00;;;;;;5036528;28;20666;-80
2024/01/17 10:12:00;;;;;;;26.37;9.27;;;-0.60;1.00;;;;;;5036254;28;20174;-82
2024/01/17 10:14:26;;;;;;;33.92;10.05;;;-0.50;1.00;;;;;;5035943;28;20192;-82
2024/01/17 10:16:52;;;;;;;28.03;8.63;;;-0.50;1.00;;;;;;5035975;28;20181;-80
2024/01/17 10:19:18;;;;;;;29.60;10.23;;;-0.40;1.00;;;;;;5035729;28;20173;-80
2024/01/17 10:21:44;;;;;;;36.80;11.27;;;-0.50;1.00;;;;;;5035097;28;20479;-80
2024/01/17 10:24:13;;;;;;;30.63;10.87;;;-0.50;1.00;;;;;;5035037;28;20203;-81
2024/01/17 10:26:41;;;;;;;32.60;11.70;;;-0.50;1.00;;;;;;5034912;28;20517;-81
2024/01/17 10:29:08;;;;;;;27.15;9.55;;;-0.50;1.00;;;;;;5017412;28;20173;-80
2024/01/17 10:31:35;;;;;;;30.05;11.07;;;-0.50;1.00;;;;;;5016822;28;20202;-80
2024/01/17 10:34:00;;;;;;;29.88;10.25;;;-0.50;1.00;;;;;;5034561;28;20197;-82
2024/01/17 10:36:26;;;;;;;29.77;10.30;;;-0.50;1.00;;;;;;5035357;28;20595;-82
2024/01/17 10:39:06;;;;;;;27.43;9.70;;;-0.50;1.00;;;;;;5035295;28;20677;-82
2024/01/17 10:41:49;;;;;;;27.52;9.70;;;-0.50;1.00;;;;;;5035876;28;20807;-82
2024/01/17 10:44:18;;;;;;;31.40;12.52;;;-0.50;1.00;;;;;;5035048;28;20158;-80
2024/01/17 10:46:46;;;;;;;29.92;11.63;;;-0.50;1.00;;;;;;5017217;28;20193;-82
2024/01/17 10:49:12;;;;;;;36.47;9.60;;;-0.50;1.00;;;;;;5016918;28;20173;-80
2024/01/17 10:51:40;;;;;;;27.70;11.10;;;-0.50;1.00;;;;;;5017327;28;20172;-81
2024/01/17 10:54:08;;;;;;;26.38;10.30;;;-0.40;1.00;;;;;;5034358;28;20264;-81
2024/01/17 10:56:36;;;;;;;25.10;8.60;;;-0.40;1.00;;;;;;5038140;28;20256;-80
2024/01/17 10:59:02;;;;;;;31.67;12.07;;;-0.30;1.00;;;;;;5038748;28;20158;-81
2024/01/17 11:01:35;;;;;;;36.17;12.30;;;-0.30;1.00;;;;;;5038100;28;20162;-80
2024/01/17 11:04:18;;;;;;;30.75;11.40;;;-0.30;1.00;;;;;;5020493;28;20196;-81
2024/01/17 11:06:44;;;;;;;29.27;9.65;;;-0.30;1.00;;;;;;5038800;28;20185;-81
2024/01/17 11:09:11;;;;;;;37.17;12.60;;;-0.30;1.00;;;;;;5020579;28;20170;-80
2024/01/17 11:11:39;;;;;;;32.40;11.10;;;-0.30;1.00;;;;;;5020742;28;20165;-81
2024/01/17 11:14:07;;;;;;;33.35;11.40;;;-0.30;1.00;;;;;;5020859;28;20186;-81
2024/01/17 11:16:35;;;;;;;32.65;11.23;;;-0.30;1.00;;;;;;5020614;28;20583;-82
2024/01/17 11:19:02;;;;;;;30.85;10.43;;;-0.20;1.00;;;;;;5038443;28;20284;-80
2024/01/17 11:21:29;;;;;;;33.53;10.93;;;-0.30;1.00;;;;;;5038239;28;20181;-81
2024/01/17 11:24:08;;;;;;;28.73;10.35;;;-0.30;1.00;;;;;;5038388;28;20162;-81
2024/01/17 11:27:04;;;;;;;32.40;12.48;;;-0.30;1.00;;;;;;5020499;28;20213;-81
2024/01/17 11:30:07;;;;;;;32.45;11.15;;;-0.30;1.00;;;;;;5020415;28;20629;-81
2024/01/17 11:32:55;;;;;;;28.15;11.05;;;-0.30;1.00;;;;;;5020885;28;20158;-81
2024/01/17 11:35:43;;;;;;;27.05;10.07;;;-0.30;1.00;;;;;;5038531;28;20596;-82
2024/01/17 11:38:24;;;;;;;33.42;11.00;;;-0.40;1.00;;;;;;5020430;28;20339;-81
2024/01/17 11:40:57;;;;;;;26.67;10.88;;;-0.50;15.70;;;;;;5020542;28;20173;-81
2024/01/17 11:43:31;;;;;;;33.05;11.85;;;-0.50;43.40;;;;;;5038116;28;20158;-81
2024/01/17 11:45:59;;;;;;;31.88;10.85;;;-0.60;86.70;;;;;;5021563;28;20158;-81
2024/01/17 11:48:33;;;;;;;34.63;12.82;;;-0.60;99.90;;;;;;5038432;28;20154;-80
2024/01/17 11:51:14;;;;;;;30.10;11.38;;;-0.60;99.90;;;;;;5038406;28;20147;-80
2024/01/17 11:53:57;;;;;;;37.60;11.18;;;-0.50;99.90;;;;;;5038639;28;20178;-81
2024/01/17 11:56:26;;;;;;;29.17;11.73;;;-0.60;99.90;;;;;;5039438;28;20196;-80
2024/01/17 11:58:57;;;;;;;28.10;11.63;;;-0.60;99.90;;;;;;5020563;28;20650;-81
2024/01/17 12:01:37;;;;;;;27.85;10.90;;;-0.60;99.90;;;;;;5020245;28;20158;-81
2024/01/17 12:04:17;;;;;;;25.55;9.82;;;-0.60;99.90;;;;;;5037743;28;20156;-81
2024/01/17 12:06:48;;;;;;;28.05;11.65;;;-0.60;99.90;;;;;;5037228;28;20228;-80
2024/01/17 12:09:19;;;;;;;31.15;11.85;;;-0.60;99.90;;;;;;5038153;28;20146;-81
2024/01/17 12:11:49;;;;;;;31.70;11.95;;;-0.60;99.90;;;;;;5037809;28;20161;-81
2024/01/17 12:14:18;;;;;;;39.60;12.07;;;-0.60;99.90;;;;;;5037213;28;20201;-80
2024/01/17 12:16:46;;;;;;;36.03;10.88;;;-0.50;99.90;;;;;;5020009;28;20196;-80
2024/01/17 12:19:14;;;;;;;31.25;12.52;;;-0.50;99.90;;;;;;5037778;28;20165;-80
2024/01/17 12:21:40;;;;;;;32.50;13.02;;;-0.50;99.90;;;;;;5019719;28;20166;-80
2024/01/17 12:24:12;;;;;;;32.35;12.55;;;-0.60;99.90;;;;;;5037626;28;20172;-81
2024/01/17 12:26:38;;;;;;;36.63;13.88;;;-0.60;99.90;;;;;;5019622;28;20243;-81
2024/01/17 12:29:09;;;;;;;35.17;12.48;;;-0.50;99.90;;;;;;5037820;28;20565;-81
2024/01/17 12:31:35;;;;;;;34.72;12.73;;;-0.50;99.90;;;;;;5037471;28;20248;-80
2024/01/17 12:34:01;;;;;;;31.17;12.20;;;-0.60;99.90;;;;;;5037321;28;20212;-80
2024/01/17 12:36:27;;;;;;;36.30;12.47;;;-0.60;99.90;;;;;;5037516;28;20261;-80